sensor_id;sensor_type;location;lat;lon;timestamp;pressure;altitude;pressure_sealevel;temperature;humidity
18533;BME280;9396;51.510;11.934;2022-12-18T00:01:49;102151.13;;;-3.89;96.97
18533;BME280;9396;51.510;11.934;2022-12-18T00:04:20;102148.09;;;-3.58;96.07
18533;BME280;9396;51.510;11.934;2022-12-18T00:06:47;102145.66;;;-3.70;95.01
18533;BME280;9396;51.510;11.934;2022-12-18T00:09:13;102148.75;;;-4.04;95.16
18533;BME280;9396;51.510;11.934;2022-12-18T00:11:40;102145.69;;;-4.38;95.69
18533;BME280;9396;51.510;11.934;2022-12-18T00:14:09;102144.72;;;-4.32;95.44
18533;BME280;9396;51.510;11.934;2022-12-18T00:16:37;102142.88;;;-4.21;95.67
18533;BME280;9396;51.510;11.934;2022-12-18T00:19:05;102135.78;;;-4.09;95.35
18533;BME280;9396;51.510;11.934;2022-12-18T00:21:32;102136.56;;;-3.99;94.84
18533;BME280;9396;51.510;11.934;2022-12-18T00:23:59;102132.63;;;-3.68;94.59
18533;BME280;9396;51.510;11.934;2022-12-18T00:26:29;102121.91;;;-3.46;94.14
18533;BME280;9396;51.510;11.934;2022-12-18T00:28:58;102122.75;;;-3.45;93.16
18533;BME280;9396;51.510;11.934;2022-12-18T00:31:25;102125.28;;;-3.39;92.61
18533;BME280;9396;51.510;11.934;2022-12-18T00:33:53;102125.03;;;-3.80;92.64
18533;BME280;9396;51.510;11.934;2022-12-18T00:36:23;102126.06;;;-3.92;92.96
18533;BME280;9396;51.510;11.934;2022-12-18T00:38:50;102136.03;;;-4.25;93.43
18533;BME280;9396;51.510;11.934;2022-12-18T00:41:18;102132.28;;;-4.79;94.91
18533;BME280;9396;51.510;11.934;2022-12-18T00:43:58;102140.94;;;-4.82;95.84
18533;BME280;9396;51.510;11.934;2022-12-18T00:46:25;102135.56;;;-4.64;96.59
18533;BME280;9396;51.510;11.934;2022-12-18T00:48:52;102140.22;;;-4.15;96.41
18533;BME280;9396;51.510;11.934;2022-12-18T00:51:19;102145.97;;;-3.92;95.60
18533;BME280;9396;51.510;11.934;2022-12-18T00:53:47;102144.81;;;-3.70;94.70
18533;BME280;9396;51.510;11.934;2022-12-18T00:56:13;102137.56;;;-3.50;94.05
18533;BME280;9396;51.510;11.934;2022-12-18T00:58:40;102128.81;;;-3.45;93.03
18533;BME280;9396;51.510;11.934;2022-12-18T01:01:07;102124.38;;;-3.37;91.97
18533;BME280;9396;51.510;11.934;2022-12-18T01:03:34;102132.94;;;-3.30;91.61
18533;BME280;9396;51.510;11.934;2022-12-18T01:06:06;102138.41;;;-3.48;90.83
18533;BME280;9396;51.510;11.934;2022-12-18T01:08:32;102135.59;;;-3.35;90.67
18533;BME280;9396;51.510;11.934;2022-12-18T01:11:01;102134.56;;;-3.23;90.36
18533;BME280;9396;51.510;11.934;2022-12-18T01:13:27;102131.41;;;-3.43;90.06
18533;BME280;9396;51.510;11.934;2022-12-18T01:15:54;102141.72;;;-3.37;89.91
18533;BME280;9396;51.510;11.934;2022-12-18T01:18:20;102158.47;;;-3.58;89.42
18533;BME280;9396;51.510;11.934;2022-12-18T01:20:47;102172.16;;;-3.42;89.58
18533;BME280;9396;51.510;11.934;2022-12-18T01:23:14;102164.56;;;-3.59;89.09
18533;BME280;9396;51.510;11.934;2022-12-18T01:25:40;102166.31;;;-3.59;89.13
18533;BME280;9396;51.510;11.934;2022-12-18T01:28:08;102174.75;;;-4.07;89.09
18533;BME280;9396;51.510;11.934;2022-12-18T01:30:35;102168.56;;;-3.97;90.01
18533;BME280;9396;51.510;11.934;2022-12-18T01:33:03;102166.00;;;-3.99;90.19
18533;BME280;9396;51.510;11.934;2022-12-18T01:35:30;102158.75;;;-3.77;89.69
18533;BME280;9396;51.510;11.934;2022-12-18T01:37:57;102175.13;;;-3.69;89.39
18533;BME280;9396;51.510;11.934;2022-12-18T01:40:24;102181.97;;;-3.62;89.29
18533;BME280;9396;51.510;11.934;2022-12-18T01:42:51;102179.19;;;-3.50;89.11
18533;BME280;9396;51.510;11.934;2022-12-18T01:45:27;102182.53;;;-3.41;88.80
18533;BME280;9396;51.510;11.934;2022-12-18T01:47:56;102191.16;;;-3.39;88.12
18533;BME280;9396;51.510;11.934;2022-12-18T01:50:25;102189.38;;;-3.35;87.67
18533;BME280;9396;51.510;11.934;2022-12-18T01:52:55;102183.47;;;-3.46;87.26
18533;BME280;9396;51.510;11.934;2022-12-18T01:55:24;102199.81;;;-3.40;87.35
18533;BME280;9396;51.510;11.934;2022-12-18T01:57:54;102195.44;;;-3.36;86.96
18533;BME280;9396;51.510;11.934;2022-12-18T02:00:22;102194.72;;;-3.44;86.80
18533;BME280;9396;51.510;11.934;2022-12-18T02:02:52;102205.44;;;-3.70;86.55
18533;BME280;9396;51.510;11.934;2022-12-18T02:05:38;102197.84;;;-3.83;86.86
18533;BME280;9396;51.510;11.934;2022-12-18T02:08:10;102199.53;;;-3.81;86.87
18533;BME280;9396;51.510;11.934;2022-12-18T02:10:46;102197.09;;;-3.94;86.50
18533;BME280;9396;51.510;11.934;2022-12-18T02:13:19;102203.16;;;-3.92;86.23
18533;BME280;9396;51.510;11.934;2022-12-18T02:15:51;102196.38;;;-4.05;86.04
18533;BME280;9396;51.510;11.934;2022-12-18T02:18:24;102116.44;;;-4.54;86.01
18533;BME280;9396;51.510;11.934;2022-12-18T02:20:56;102200.59;;;-3.97;85.99
18533;BME280;9396;51.510;11.934;2022-12-18T02:23:45;102206.69;;;-3.98;85.87
18533;BME280;9396;51.510;11.934;2022-12-18T02:26:22;102199.78;;;-3.99;85.49
18533;BME280;9396;51.510;11.934;2022-12-18T02:28:53;102198.84;;;-3.95;85.94
18533;BME280;9396;51.510;11.934;2022-12-18T02:31:24;102189.50;;;-4.08;86.12
18533;BME280;9396;51.510;11.934;2022-12-18T02:33:55;102192.16;;;-5.00;87.93
18533;BME280;9396;51.510;11.934;2022-12-18T02:36:23;102190.59;;;-5.24;89.52
18533;BME280;9396;51.510;11.934;2022-12-18T02:38:52;102191.06;;;-4.78;89.77
18533;BME280;9396;51.510;11.934;2022-12-18T02:41:21;102188.25;;;-4.53;89.43
18533;BME280;9396;51.510;11.934;2022-12-18T02:43:49;102194.19;;;-4.43;88.87
18533;BME280;9396;51.510;11.934;2022-12-18T02:46:30;102203.56;;;-4.28;88.46
18533;BME280;9396;51.510;11.934;2022-12-18T02:49:03;102206.84;;;-4.14;88.09
18533;BME280;9396;51.510;11.934;2022-12-18T02:51:40;102196.34;;;-4.02;87.62
18533;BME280;9396;51.510;11.934;2022-12-18T02:54:13;102192.94;;;-4.06;86.52
18533;BME280;9396;51.510;11.934;2022-12-18T02:56:48;102193.78;;;-4.07;85.88
18533;BME280;9396;51.510;11.934;2022-12-18T02:59:17;102191.97;;;-4.00;85.15
18533;BME280;9396;51.510;11.934;2022-12-18T03:01:51;102193.72;;;-3.99;84.65
18533;BME280;9396;51.510;11.934;2022-12-18T03:04:25;102206.75;;;-4.02;84.30
18533;BME280;9396;51.510;11.934;2022-12-18T03:06:55;102202.34;;;-3.97;83.71
18533;BME280;9396;51.510;11.934;2022-12-18T03:09:26;102198.94;;;-4.04;83.19
18533;BME280;9396;51.510;11.934;2022-12-18T03:12:00;102203.47;;;-4.19;82.60
18533;BME280;9396;51.510;11.934;2022-12-18T03:14:49;102202.56;;;-4.17;82.35
18533;BME280;9396;51.510;11.934;2022-12-18T03:17:20;102210.41;;;-4.18;82.36
18533;BME280;9396;51.510;11.934;2022-12-18T03:19:51;102198.31;;;-4.22;82.76
18533;BME280;9396;51.510;11.934;2022-12-18T03:22:20;102213.00;;;-4.18;83.05
18533;BME280;9396;51.510;11.934;2022-12-18T03:24:48;102216.41;;;-4.16;82.29
18533;BME280;9396;51.510;11.934;2022-12-18T03:27:18;102217.34;;;-4.20;82.26
18533;BME280;9396;51.510;11.934;2022-12-18T03:29:49;102134.91;;;-4.81;81.79
18533;BME280;9396;51.510;11.934;2022-12-18T03:32:23;102223.56;;;-4.40;81.93
18533;BME280;9396;51.510;11.934;2022-12-18T03:34:53;102221.94;;;-4.50;82.07
18533;BME280;9396;51.510;11.934;2022-12-18T03:37:21;102229.81;;;-4.59;82.22
18533;BME280;9396;51.510;11.934;2022-12-18T03:39:48;102229.06;;;-4.70;81.84
18533;BME280;9396;51.510;11.934;2022-12-18T03:42:21;102224.78;;;-4.74;81.32
18533;BME280;9396;51.510;11.934;2022-12-18T03:44:56;102218.78;;;-4.82;81.50
18533;BME280;9396;51.510;11.934;2022-12-18T03:47:27;102214.56;;;-4.92;81.01
18533;BME280;9396;51.510;11.934;2022-12-18T03:49:58;102226.63;;;-4.91;80.74
18533;BME280;9396;51.510;11.934;2022-12-18T03:52:32;102226.72;;;-4.97;80.42
18533;BME280;9396;51.510;11.934;2022-12-18T03:55:03;102217.25;;;-5.05;80.40
18533;BME280;9396;51.510;11.934;2022-12-18T03:57:33;102217.31;;;-5.11;79.88
18533;BME280;9396;51.510;11.934;2022-12-18T04:00:04;102216.47;;;-5.15;79.83
18533;BME280;9396;51.510;11.934;2022-12-18T04:02:34;102216.47;;;-5.16;79.58
18533;BME280;9396;51.510;11.934;2022-12-18T04:05:05;102209.56;;;-5.19;79.31
18533;BME280;9396;51.510;11.934;2022-12-18T04:07:33;102208.78;;;-5.30;79.12
18533;BME280;9396;51.510;11.934;2022-12-18T04:10:01;102216.59;;;-5.33;78.86
18533;BME280;9396;51.510;11.934;2022-12-18T04:12:30;102221.78;;;-5.36;79.07
18533;BME280;9396;51.510;11.934;2022-12-18T04:14:58;102214.91;;;-5.40;78.81
18533;BME280;9396;51.510;11.934;2022-12-18T04:17:24;102212.34;;;-5.49;79.45
18533;BME280;9396;51.510;11.934;2022-12-18T04:19:51;102210.63;;;-5.49;79.39
18533;BME280;9396;51.510;11.934;2022-12-18T04:22:17;102215.88;;;-5.59;78.69
18533;BME280;9396;51.510;11.934;2022-12-18T04:24:44;102219.47;;;-5.87;78.62
18533;BME280;9396;51.510;11.934;2022-12-18T04:27:11;102214.38;;;-6.07;79.63
18533;BME280;9396;51.510;11.934;2022-12-18T04:29:37;102217.88;;;-6.11;79.82
18533;BME280;9396;51.510;11.934;2022-12-18T04:32:06;102204.91;;;-6.11;80.56
18533;BME280;9396;51.510;11.934;2022-12-18T04:34:33;102199.72;;;-6.06;80.90
18533;BME280;9396;51.510;11.934;2022-12-18T04:36:59;102195.34;;;-5.92;81.29
18533;BME280;9396;51.510;11.934;2022-12-18T04:39:26;102197.81;;;-5.80;80.92
18533;BME280;9396;51.510;11.934;2022-12-18T04:41:53;102203.00;;;-5.77;80.72
18533;BME280;9396;51.510;11.934;2022-12-18T04:44:19;102190.03;;;-5.70;79.83
18533;BME280;9396;51.510;11.934;2022-12-18T04:46:46;102202.16;;;-5.79;79.68
18533;BME280;9396;51.510;11.934;2022-12-18T04:49:14;102206.44;;;-5.72;79.72
18533;BME280;9396;51.510;11.934;2022-12-18T04:51:40;102213.38;;;-5.77;79.21
18533;BME280;9396;51.510;11.934;2022-12-18T04:54:07;102209.91;;;-5.73;79.57
18533;BME280;9396;51.510;11.934;2022-12-18T04:56:34;102212.47;;;-5.75;79.77
18533;BME280;9396;51.510;11.934;2022-12-18T04:59:00;102210.75;;;-5.70;79.20
18533;BME280;9396;51.510;11.934;2022-12-18T05:01:27;102202.97;;;-5.68;78.85
18533;BME280;9396;51.510;11.934;2022-12-18T05:03:54;102204.72;;;-5.73;78.79
18533;BME280;9396;51.510;11.934;2022-12-18T05:06:21;102210.78;;;-5.77;78.04
18533;BME280;9396;51.510;11.934;2022-12-18T05:08:48;102213.44;;;-5.83;77.88
18533;BME280;9396;51.510;11.934;2022-12-18T05:11:15;102220.34;;;-5.85;78.11
18533;BME280;9396;51.510;11.934;2022-12-18T05:13:43;102227.28;;;-5.90;77.60
18533;BME280;9396;51.510;11.934;2022-12-18T05:16:10;102223.84;;;-5.89;77.14
18533;BME280;9396;51.510;11.934;2022-12-18T05:18:37;102227.28;;;-5.90;77.40
18533;BME280;9396;51.510;11.934;2022-12-18T05:21:04;102233.31;;;-5.90;76.96
18533;BME280;9396;51.510;11.934;2022-12-18T05:23:35;102155.84;;;-6.47;76.71
18533;BME280;9396;51.510;11.934;2022-12-18T05:26:04;102155.00;;;-6.53;77.02
18533;BME280;9396;51.510;11.934;2022-12-18T05:28:33;102246.31;;;-6.08;77.46
18533;BME280;9396;51.510;11.934;2022-12-18T05:31:02;102248.91;;;-6.06;76.93
18533;BME280;9396;51.510;11.934;2022-12-18T05:33:30;102251.47;;;-6.03;77.04
18533;BME280;9396;51.510;11.934;2022-12-18T05:35:58;102256.66;;;-6.06;76.85
18533;BME280;9396;51.510;11.934;2022-12-18T05:38:29;102253.22;;;-6.08;76.46
18533;BME280;9396;51.510;11.934;2022-12-18T05:40:59;102251.53;;;-6.12;76.35
18533;BME280;9396;51.510;11.934;2022-12-18T05:43:26;102256.72;;;-6.18;75.75
18533;BME280;9396;51.510;11.934;2022-12-18T05:45:54;102246.38;;;-6.26;75.86
18533;BME280;9396;51.510;11.934;2022-12-18T05:48:22;102261.91;;;-6.21;76.22
18533;BME280;9396;51.510;11.934;2022-12-18T05:50:49;102253.28;;;-6.29;76.32
18533;BME280;9396;51.510;11.934;2022-12-18T05:53:19;102252.44;;;-6.43;76.11
18533;BME280;9396;51.510;11.934;2022-12-18T05:55:47;102169.72;;;-7.32;76.65
18533;BME280;9396;51.510;11.934;2022-12-18T05:58:15;102275.72;;;-6.89;77.22
18533;BME280;9396;51.510;11.934;2022-12-18T06:00:45;102269.69;;;-6.83;77.17
18533;BME280;9396;51.510;11.934;2022-12-18T06:03:13;102271.44;;;-6.78;77.50
18533;BME280;9396;51.510;11.934;2022-12-18T06:05:41;102274.00;;;-6.66;77.71
18533;BME280;9396;51.510;11.934;2022-12-18T06:08:08;102285.19;;;-7.03;76.77
18533;BME280;9396;51.510;11.934;2022-12-18T06:10:35;102286.03;;;-7.19;77.14
18533;BME280;9396;51.510;11.934;2022-12-18T06:13:02;102271.34;;;-7.24;77.84
18533;BME280;9396;51.510;11.934;2022-12-18T06:15:31;102273.97;;;-7.17;78.12
18533;BME280;9396;51.510;11.934;2022-12-18T06:17:57;102271.41;;;-7.02;77.65
18533;BME280;9396;51.510;11.934;2022-12-18T06:20:24;102279.19;;;-6.91;77.37
18533;BME280;9396;51.510;11.934;2022-12-18T06:22:50;102280.03;;;-6.92;76.80
18533;BME280;9396;51.510;11.934;2022-12-18T06:25:17;102287.81;;;-6.85;76.84
18533;BME280;9396;51.510;11.934;2022-12-18T06:27:44;102280.91;;;-6.95;76.68
18533;BME280;9396;51.510;11.934;2022-12-18T06:30:13;102276.59;;;-6.99;76.97
18533;BME280;9396;51.510;11.934;2022-12-18T06:32:41;102275.69;;;-7.10;77.21
18533;BME280;9396;51.510;11.934;2022-12-18T06:35:08;102282.56;;;-7.28;77.77
18533;BME280;9396;51.510;11.934;2022-12-18T06:37:35;102277.41;;;-7.21;77.47
18533;BME280;9396;51.510;11.934;2022-12-18T06:40:02;102287.75;;;-7.12;77.26
18533;BME280;9396;51.510;11.934;2022-12-18T06:42:29;102289.50;;;-7.05;77.29
18533;BME280;9396;51.510;11.934;2022-12-18T06:44:55;102284.34;;;-7.02;76.75
18533;BME280;9396;51.510;11.934;2022-12-18T06:47:22;102284.34;;;-7.00;76.20
18533;BME280;9396;51.510;11.934;2022-12-18T06:49:50;102283.44;;;-7.22;75.78
18533;BME280;9396;51.510;11.934;2022-12-18T06:52:16;102280.78;;;-7.49;76.39
18533;BME280;9396;51.510;11.934;2022-12-18T06:54:43;102272.19;;;-7.42;76.92
18533;BME280;9396;51.510;11.934;2022-12-18T06:57:10;102286.00;;;-7.37;76.78
18533;BME280;9396;51.510;11.934;2022-12-18T06:59:37;102286.88;;;-7.29;76.90
18533;BME280;9396;51.510;11.934;2022-12-18T07:02:03;102293.72;;;-7.38;76.44
18533;BME280;9396;51.510;11.934;2022-12-18T07:04:30;102281.66;;;-7.39;76.31
18533;BME280;9396;51.510;11.934;2022-12-18T07:06:59;102285.13;;;-7.34;76.47
18533;BME280;9396;51.510;11.934;2022-12-18T07:09:25;102294.63;;;-7.26;76.44
18533;BME280;9396;51.510;11.934;2022-12-18T07:11:52;102290.31;;;-7.25;76.04
18533;BME280;9396;51.510;11.934;2022-12-18T07:14:19;102306.66;;;-7.31;75.25
18533;BME280;9396;51.510;11.934;2022-12-18T07:16:45;102304.06;;;-7.40;75.88
18533;BME280;9396;51.510;11.934;2022-12-18T07:19:12;102307.50;;;-7.41;75.80
18533;BME280;9396;51.510;11.934;2022-12-18T07:21:39;102304.91;;;-7.38;76.32
18533;BME280;9396;51.510;11.934;2022-12-18T07:24:07;102308.34;;;-7.49;76.05
18533;BME280;9396;51.510;11.934;2022-12-18T07:26:34;102314.34;;;-7.53;76.14
18533;BME280;9396;51.510;11.934;2022-12-18T07:29:00;102310.06;;;-7.50;75.80
18533;BME280;9396;51.510;11.934;2022-12-18T07:31:27;102322.13;;;-7.46;76.47
18533;BME280;9396;51.510;11.934;2022-12-18T07:33:54;102324.72;;;-7.43;76.11
18533;BME280;9396;51.510;11.934;2022-12-18T07:36:24;102328.19;;;-7.39;75.68
18533;BME280;9396;51.510;11.934;2022-12-18T07:38:51;102235.75;;;-8.11;76.27
18533;BME280;9396;51.510;11.934;2022-12-18T07:41:19;102341.03;;;-7.53;76.20
18533;BME280;9396;51.510;11.934;2022-12-18T07:43:46;102331.59;;;-7.43;76.11
18533;BME280;9396;51.510;11.934;2022-12-18T07:46:14;102323.81;;;-7.54;76.34
18533;BME280;9396;51.510;11.934;2022-12-18T07:48:41;102340.22;;;-7.43;76.94
18533;BME280;9396;51.510;11.934;2022-12-18T07:51:11;102338.47;;;-7.45;76.19
18533;BME280;9396;51.510;11.934;2022-12-18T07:53:39;102343.59;;;-7.54;75.87
18533;BME280;9396;51.510;11.934;2022-12-18T07:56:07;102333.06;;;-7.94;76.13
18533;BME280;9396;51.510;11.934;2022-12-18T07:58:36;102335.75;;;-7.80;76.53
18533;BME280;9396;51.510;11.934;2022-12-18T08:01:03;102336.63;;;-7.78;77.75
18533;BME280;9396;51.510;11.934;2022-12-18T08:03:30;102335.78;;;-7.68;77.56
18533;BME280;9396;51.510;11.934;2022-12-18T08:05:59;102332.44;;;-7.56;77.68
18533;BME280;9396;51.510;11.934;2022-12-18T08:08:28;102347.88;;;-7.64;77.67
18533;BME280;9396;51.510;11.934;2022-12-18T08:10:56;102351.28;;;-7.73;77.48
18533;BME280;9396;51.510;11.934;2022-12-18T08:13:23;102359.81;;;-7.84;78.27
18533;BME280;9396;51.510;11.934;2022-12-18T08:15:57;102371.03;;;-7.79;78.04
18533;BME280;9396;51.510;11.934;2022-12-18T08:18:23;102373.59;;;-7.85;77.96
18533;BME280;9396;51.510;11.934;2022-12-18T08:20:50;102384.53;;;-8.16;78.15
18533;BME280;9396;51.510;11.934;2022-12-18T08:23:17;102370.06;;;-7.93;78.44
18533;BME280;9396;51.510;11.934;2022-12-18T08:25:43;102372.78;;;-7.72;78.40
18533;BME280;9396;51.510;11.934;2022-12-18T08:28:10;102367.72;;;-7.55;78.53
18533;BME280;9396;51.510;11.934;2022-12-18T08:30:37;102374.63;;;-7.45;78.05
18533;BME280;9396;51.510;11.934;2022-12-18T08:33:05;102372.13;;;-7.32;77.05
18533;BME280;9396;51.510;11.934;2022-12-18T08:35:35;102375.59;;;-7.28;76.88
18533;BME280;9396;51.510;11.934;2022-12-18T08:38:01;102353.19;;;-7.34;77.42
18533;BME280;9396;51.510;11.934;2022-12-18T08:40:28;102373.94;;;-7.14;77.02
18533;BME280;9396;51.510;11.934;2022-12-18T08:42:55;102358.34;;;-7.31;77.35
18533;BME280;9396;51.510;11.934;2022-12-18T08:45:39;102359.91;;;-7.69;77.73
18533;BME280;9396;51.510;11.934;2022-12-18T08:48:07;102367.22;;;-8.38;80.07
18533;BME280;9396;51.510;11.934;2022-12-18T08:50:33;102345.78;;;-8.25;80.25
18533;BME280;9396;51.510;11.934;2022-12-18T08:53:00;102362.81;;;-8.48;81.53
18533;BME280;9396;51.510;11.934;2022-12-18T08:55:27;102370.00;;;-8.02;81.32
18533;BME280;9396;51.510;11.934;2022-12-18T08:57:54;102368.44;;;-7.79;81.33
18533;BME280;9396;51.510;11.934;2022-12-18T09:00:20;102366.88;;;-7.50;80.81
18533;BME280;9396;51.510;11.934;2022-12-18T09:02:47;102359.22;;;-7.27;80.93
18533;BME280;9396;51.510;11.934;2022-12-18T09:05:15;102363.59;;;-7.10;80.64
18533;BME280;9396;51.510;11.934;2022-12-18T09:07:42;102363.59;;;-7.16;80.58
18533;BME280;9396;51.510;11.934;2022-12-18T09:10:09;102349.63;;;-7.51;79.75
18533;BME280;9396;51.510;11.934;2022-12-18T09:12:35;102348.75;;;-7.57;80.22
18533;BME280;9396;51.510;11.934;2022-12-18T09:15:02;102359.13;;;-7.53;80.76
18533;BME280;9396;51.510;11.934;2022-12-18T09:17:29;102352.31;;;-7.40;81.07
18533;BME280;9396;51.510;11.934;2022-12-18T09:19:56;102347.19;;;-7.18;81.79
18533;BME280;9396;51.510;11.934;2022-12-18T09:22:24;102354.09;;;-7.18;81.94
18533;BME280;9396;51.510;11.934;2022-12-18T09:24:50;102349.88;;;-6.88;82.20
18533;BME280;9396;51.510;11.934;2022-12-18T09:27:17;102349.88;;;-6.76;81.87
18533;BME280;9396;51.510;11.934;2022-12-18T09:29:43;102346.41;;;-6.91;82.27
18533;BME280;9396;51.510;11.934;2022-12-18T09:32:10;102341.22;;;-6.96;82.31
18533;BME280;9396;51.510;11.934;2022-12-18T09:34:37;102330.78;;;-7.33;82.89
18533;BME280;9396;51.510;11.934;2022-12-18T09:37:03;102333.47;;;-6.96;83.74
18533;BME280;9396;51.510;11.934;2022-12-18T09:39:31;102333.50;;;-6.70;83.04
18533;BME280;9396;51.510;11.934;2022-12-18T09:42:00;102331.78;;;-6.73;83.10
18533;BME280;9396;51.510;11.934;2022-12-18T09:44:29;102322.31;;;-6.55;83.71
18533;BME280;9396;51.510;11.934;2022-12-18T09:47:03;102308.50;;;-6.35;83.81
18533;BME280;9396;51.510;11.934;2022-12-18T09:49:37;102303.28;;;-6.15;83.59
18533;BME280;9396;51.510;11.934;2022-12-18T09:52:11;102299.81;;;-5.99;83.47
18533;BME280;9396;51.510;11.934;2022-12-18T09:54:46;102289.41;;;-5.87;83.59
18533;BME280;9396;51.510;11.934;2022-12-18T09:57:19;102287.63;;;-5.76;83.57
18533;BME280;9396;51.510;11.934;2022-12-18T09:59:50;102297.94;;;-5.67;83.27
18533;BME280;9396;51.510;11.934;2022-12-18T10:02:22;102291.03;;;-5.59;83.25
18533;BME280;9396;51.510;11.934;2022-12-18T10:04:59;102280.63;;;-5.56;83.37
18533;BME280;9396;51.510;11.934;2022-12-18T10:07:38;102270.25;;;-5.49;83.64
18533;BME280;9396;51.510;11.934;2022-12-18T10:10:16;102265.06;;;-5.47;84.40
18533;BME280;9396;51.510;11.934;2022-12-18T10:12:53;102269.28;;;-5.35;84.24
18533;BME280;9396;51.510;11.934;2022-12-18T10:15:27;102265.84;;;-5.33;84.15
18533;BME280;9396;51.510;11.934;2022-12-18T10:18:02;102251.09;;;-5.22;84.65
18533;BME280;9396;51.510;11.934;2022-12-18T10:20:38;102259.94;;;-5.59;85.01
18533;BME280;9396;51.510;11.934;2022-12-18T10:23:12;102259.78;;;-5.35;85.86
18533;BME280;9396;51.510;11.934;2022-12-18T10:25:53;102261.44;;;-5.25;86.17
18533;BME280;9396;51.510;11.934;2022-12-18T10:28:22;102259.66;;;-5.11;86.82
18533;BME280;9396;51.510;11.934;2022-12-18T10:30:49;102265.44;;;-4.74;86.83
18533;BME280;9396;51.510;11.934;2022-12-18T10:33:18;102261.00;;;-4.60;87.64
18533;BME280;9396;51.510;11.934;2022-12-18T10:35:47;102264.22;;;-4.36;87.80
18533;BME280;9396;51.510;11.934;2022-12-18T10:38:22;102256.25;;;-4.17;87.85
18533;BME280;9396;51.510;11.934;2022-12-18T10:40:54;102244.81;;;-4.01;88.08
18533;BME280;9396;51.510;11.934;2022-12-18T10:43:24;102250.69;;;-3.86;88.02
18533;BME280;9396;51.510;11.934;2022-12-18T10:46:03;102254.00;;;-3.73;87.92
18533;BME280;9396;51.510;11.934;2022-12-18T10:48:32;102262.63;;;-3.67;88.01
18533;BME280;9396;51.510;11.934;2022-12-18T10:50:59;102261.63;;;-3.57;87.82
18533;BME280;9396;51.510;11.934;2022-12-18T10:53:28;102269.44;;;-3.61;88.13
18533;BME280;9396;51.510;11.934;2022-12-18T10:56:04;102265.84;;;-3.50;88.12
18533;BME280;9396;51.510;11.934;2022-12-18T10:58:33;102263.13;;;-3.39;88.30
18533;BME280;9396;51.510;11.934;2022-12-18T11:01:07;102255.09;;;-3.26;88.57
18533;BME280;9396;51.510;11.934;2022-12-18T11:03:36;102246.41;;;-3.23;88.74
18533;BME280;9396;51.510;11.934;2022-12-18T11:06:05;102247.19;;;-3.18;88.62
18533;BME280;9396;51.510;11.934;2022-12-18T11:08:32;102250.50;;;-3.05;88.50
18533;BME280;9396;51.510;11.934;2022-12-18T11:11:00;102260.72;;;-2.95;88.56
18533;BME280;9396;51.510;11.934;2022-12-18T11:13:29;102259.81;;;-2.91;88.54
18533;BME280;9396;51.510;11.934;2022-12-18T11:15:57;102270.34;;;-2.98;88.79
18533;BME280;9396;51.510;11.934;2022-12-18T11:18:27;102265.81;;;-2.86;88.99
18533;BME280;9396;51.510;11.934;2022-12-18T11:20:56;102267.53;;;-2.85;88.74
18533;BME280;9396;51.510;11.934;2022-12-18T11:23:24;102256.00;;;-2.70;88.90
18533;BME280;9396;51.510;11.934;2022-12-18T11:25:53;102258.47;;;-2.63;88.58
18533;BME280;9396;51.510;11.934;2022-12-18T11:28:35;102267.06;;;-2.58;88.50
18533;BME280;9396;51.510;11.934;2022-12-18T11:31:23;102258.41;;;-2.57;88.52
18533;BME280;9396;51.510;11.934;2022-12-18T11:33:56;102244.78;;;-2.74;89.03
18533;BME280;9396;51.510;11.934;2022-12-18T11:36:25;102251.34;;;-2.52;88.93
18533;BME280;9396;51.510;11.934;2022-12-18T11:38:55;102259.88;;;-2.44;88.51
18533;BME280;9396;51.510;11.934;2022-12-18T11:41:27;102249.38;;;-2.38;88.16
18533;BME280;9396;51.510;11.934;2022-12-18T11:44:14;102246.16;;;-2.52;88.97
18533;BME280;9396;51.510;11.934;2022-12-18T11:46:46;102243.69;;;-2.61;89.61
18533;BME280;9396;51.510;11.934;2022-12-18T11:49:18;102246.78;;;-2.38;89.34
18533;BME280;9396;51.510;11.934;2022-12-18T11:51:50;102242.22;;;-2.27;89.09
18533;BME280;9396;51.510;11.934;2022-12-18T11:54:18;102236.81;;;-2.16;89.56
18533;BME280;9396;51.510;11.934;2022-12-18T11:56:48;102229.66;;;-2.05;89.17
18533;BME280;9396;51.510;11.934;2022-12-18T11:59:24;102239.88;;;-1.94;89.33
18533;BME280;9396;51.510;11.934;2022-12-18T12:02:02;102232.81;;;-1.89;88.81
18533;BME280;9396;51.510;11.934;2022-12-18T12:04:57;102220.59;;;-1.86;89.07
18533;BME280;9396;51.510;11.934;2022-12-18T12:07:37;102211.75;;;-1.79;89.16
18533;BME280;9396;51.510;11.934;2022-12-18T12:10:15;102210.69;;;-1.70;89.05
18533;BME280;9396;51.510;11.934;2022-12-18T12:12:59;102195.06;;;-1.72;89.28
18533;BME280;9396;51.510;11.934;2022-12-18T12:15:36;102187.03;;;-1.61;89.03
18533;BME280;9396;51.510;11.934;2022-12-18T12:18:13;102198.56;;;-1.71;89.21
18533;BME280;9396;51.510;11.934;2022-12-18T12:20:51;102196.78;;;-1.69;89.24
18533;BME280;9396;51.510;11.934;2022-12-18T12:23:26;102199.03;;;-1.95;90.54
18533;BME280;9396;51.510;11.934;2022-12-18T12:25:58;102199.03;;;-2.40;91.83
18533;BME280;9396;51.510;11.934;2022-12-18T12:28:41;102192.88;;;-2.34;92.46
18533;BME280;9396;51.510;11.934;2022-12-18T12:31:18;102199.38;;;-2.58;93.48
18533;BME280;9396;51.510;11.934;2022-12-18T12:33:54;102195.38;;;-2.30;93.31
18533;BME280;9396;51.510;11.934;2022-12-18T12:36:29;102204.22;;;-2.38;93.42
18533;BME280;9396;51.510;11.934;2022-12-18T12:42:29;102198.97;;;-1.91;92.65
18533;BME280;9396;51.510;11.934;2022-12-18T12:45:18;102201.38;;;-1.82;92.52
18533;BME280;9396;51.510;11.934;2022-12-18T12:47:49;102193.16;;;-2.06;92.59
18533;BME280;9396;51.510;11.934;2022-12-18T12:50:19;102192.13;;;-2.41;93.45
18533;BME280;9396;51.510;11.934;2022-12-18T12:52:49;102190.19;;;-2.31;94.13
18533;BME280;9396;51.510;11.934;2022-12-18T12:55:20;102190.69;;;-2.11;93.40
18533;BME280;9396;51.510;11.934;2022-12-18T12:57:54;102174.22;;;-2.13;92.82
18533;BME280;9396;51.510;11.934;2022-12-18T13:00:22;102153.50;;;-2.21;92.57
18533;BME280;9396;51.510;11.934;2022-12-18T13:03:03;102151.13;;;-1.90;92.93
18533;BME280;9396;51.510;11.934;2022-12-18T13:05:40;102151.78;;;-1.79;92.50
18533;BME280;9396;51.510;11.934;2022-12-18T13:08:12;102149.59;;;-1.98;92.45